createdAt,value
2018-08-04T00:02:04.216Z,11.47
2018-08-04T00:04:33.170Z,11.03
2018-08-04T00:07:02.123Z,10.27
2018-08-04T00:09:31.062Z,10.27
2018-08-04T00:12:00.001Z,10.23
2018-08-04T00:14:28.926Z,10.60
2018-08-04T00:16:57.833Z,11.57
2018-08-04T00:19:26.750Z,11.23
2018-08-04T00:21:55.632Z,9.80
2018-08-04T00:24:24.515Z,10.33
2018-08-04T00:26:53.401Z,10.70
2018-08-04T00:29:22.298Z,10.87
2018-08-04T00:31:51.182Z,10.20
2018-08-04T00:34:20.080Z,9.97
2018-08-04T00:36:48.962Z,10.57
2018-08-04T00:39:17.835Z,10.40
2018-08-04T00:41:46.718Z,10.10
2018-08-04T00:44:15.652Z,10.40
2018-08-04T00:46:44.570Z,10.50
2018-08-04T00:49:13.478Z,11.40
2018-08-04T00:51:42.455Z,11.73
2018-08-04T00:54:11.391Z,11.40
2018-08-04T00:56:40.298Z,11.00
2018-08-04T00:59:09.214Z,10.40
2018-08-04T01:01:38.122Z,10.50
2018-08-04T01:04:07.074Z,10.40
2018-08-04T01:06:36.006Z,10.90
2018-08-04T01:09:07.337Z,10.23
2018-08-04T01:11:36.334Z,11.60
2018-08-04T01:14:05.275Z,11.37
2018-08-04T01:16:34.218Z,10.43
2018-08-04T01:19:03.177Z,10.83
2018-08-04T01:21:32.106Z,11.50
2018-08-04T01:24:01.026Z,11.17
2018-08-04T01:26:29.928Z,12.13
2018-08-04T01:28:58.826Z,10.77
2018-08-04T01:31:28.023Z,11.27
2018-08-04T01:33:56.965Z,11.57
2018-08-04T01:36:25.822Z,11.67
2018-08-04T01:38:54.720Z,10.27
2018-08-04T01:41:23.619Z,11.97
2018-08-04T01:43:52.528Z,11.20
2018-08-04T01:46:21.386Z,12.90
2018-08-04T01:48:49.982Z,11.50
2018-08-04T01:51:18.773Z,11.80
2018-08-04T01:53:47.709Z,12.20
2018-08-04T01:56:16.545Z,11.80
2018-08-04T01:58:45.454Z,10.90
2018-08-04T02:01:14.346Z,10.63
2018-08-04T02:03:43.310Z,11.83
2018-08-04T02:06:12.198Z,12.10
2018-08-04T02:08:41.105Z,12.60
2018-08-04T02:11:10.006Z,11.50
2018-08-04T02:13:38.902Z,12.63
2018-08-04T02:16:07.795Z,12.07
2018-08-04T02:18:36.715Z,11.03
2018-08-04T02:21:05.639Z,11.60
2018-08-04T02:23:34.267Z,11.00
2018-08-04T02:26:03.076Z,11.30
2018-08-04T02:28:31.977Z,10.97
2018-08-04T02:31:00.890Z,11.20
2018-08-04T02:33:29.779Z,11.90
2018-08-04T02:35:58.699Z,11.63
2018-08-04T02:38:27.590Z,12.90
2018-08-04T02:40:56.482Z,11.90
2018-08-04T02:43:25.354Z,11.80
2018-08-04T02:45:54.262Z,12.00
2018-08-04T02:48:23.137Z,12.27
2018-08-04T02:50:52.042Z,12.87
2018-08-04T02:53:21.051Z,12.30
2018-08-04T02:55:50.022Z,12.70
2018-08-04T02:58:19.040Z,12.77
2018-08-04T03:00:47.950Z,13.70
2018-08-04T03:03:16.818Z,12.80
2018-08-04T03:05:45.728Z,13.07
2018-08-04T03:08:14.621Z,12.77
2018-08-04T03:10:43.498Z,13.17
2018-08-04T03:13:12.407Z,12.23
2018-08-04T03:15:41.300Z,12.73
2018-08-04T03:18:10.207Z,12.97
2018-08-04T03:20:39.102Z,12.87
2018-08-04T03:23:08.058Z,13.33
2018-08-04T03:25:36.978Z,12.83
2018-08-04T03:28:05.896Z,12.97
2018-08-04T03:30:34.948Z,12.60
2018-08-04T03:33:03.913Z,13.37
2018-08-04T03:35:32.846Z,12.93
2018-08-04T03:38:01.804Z,12.83
2018-08-04T03:40:30.713Z,13.67
2018-08-04T03:42:59.618Z,12.50
2018-08-04T03:45:28.522Z,12.63
2018-08-04T03:47:57.410Z,13.17
2018-08-04T03:50:26.331Z,12.90
2018-08-04T03:52:55.233Z,12.77
2018-08-04T03:55:24.134Z,13.37
2018-08-04T03:57:53.014Z,13.43
2018-08-04T04:00:21.967Z,13.03
2018-08-04T04:02:50.862Z,13.07
2018-08-04T04:05:19.762Z,13.47
2018-08-04T04:07:48.642Z,12.80
2018-08-04T04:10:17.533Z,12.43
2018-08-04T04:12:46.438Z,12.30
2018-08-04T04:15:15.361Z,13.83
2018-08-04T04:17:46.429Z,13.03
2018-08-04T04:20:16.771Z,12.80
2018-08-04T04:22:46.075Z,13.60
2018-08-04T04:25:14.996Z,13.27
2018-08-04T04:27:44.199Z,13.70
2018-08-04T04:30:13.930Z,14.30
2018-08-04T04:32:42.819Z,13.50
2018-08-04T04:35:11.785Z,13.40
2018-08-04T04:37:40.630Z,14.53
2018-08-04T04:40:09.542Z,13.25
2018-08-04T04:42:38.425Z,14.07
2018-08-04T04:45:07.338Z,12.20
2018-08-04T04:47:36.258Z,13.40
2018-08-04T04:50:05.165Z,12.97
2018-08-04T04:52:34.072Z,13.60
2018-08-04T04:55:03.265Z,13.67
2018-08-04T04:57:32.239Z,12.67
2018-08-04T05:00:01.138Z,14.10
2018-08-04T05:02:30.035Z,13.37
2018-08-04T05:04:58.934Z,13.97
2018-08-04T05:07:27.882Z,14.77
2018-08-04T05:09:56.846Z,13.73
2018-08-04T05:12:25.440Z,14.10
2018-08-04T05:14:54.225Z,13.40
2018-08-04T05:17:23.130Z,13.80
2018-08-04T05:19:52.019Z,14.03
2018-08-04T05:22:20.932Z,14.60
2018-08-04T05:24:49.818Z,13.87
2018-08-04T05:27:18.729Z,14.00
2018-08-04T05:29:47.614Z,13.23
2018-08-04T05:32:16.542Z,14.30
2018-08-04T05:34:45.165Z,14.17
2018-08-04T05:37:13.982Z,14.70
2018-08-04T05:39:42.873Z,14.70
2018-08-04T05:42:11.822Z,14.07
2018-08-04T05:44:40.706Z,14.13
2018-08-04T05:47:09.645Z,13.93
2018-08-04T05:49:38.564Z,13.90
2018-08-04T05:52:07.182Z,14.37
2018-08-04T05:54:36.110Z,11.97
2018-08-04T05:57:05.158Z,13.23
2018-08-04T05:59:34.172Z,12.17
2018-08-04T06:02:03.165Z,12.87
2018-08-04T06:04:32.067Z,11.30
2018-08-04T06:07:00.950Z,11.60
2018-08-04T06:09:29.875Z,12.40
2018-08-04T06:11:58.777Z,12.17
2018-08-04T06:14:27.690Z,12.83
2018-08-04T06:16:56.568Z,12.87
2018-08-04T06:19:25.513Z,13.60
2018-08-04T06:21:54.714Z,12.10
2018-08-04T06:24:23.601Z,13.50
2018-08-04T06:26:52.529Z,13.80
2018-08-04T06:29:21.456Z,12.30
2018-08-04T06:31:50.370Z,10.63
2018-08-04T06:34:19.272Z,12.53
2018-08-04T06:36:48.154Z,11.57
2018-08-04T06:39:17.053Z,11.60
2018-08-04T06:41:45.987Z,11.60
2018-08-04T06:44:14.842Z,11.67
2018-08-04T06:46:43.713Z,12.50
2018-08-04T06:49:12.611Z,12.43
2018-08-04T06:51:41.590Z,11.50
2018-08-04T06:54:10.221Z,12.00
2018-08-04T06:56:39.150Z,11.77
2018-08-04T06:59:08.069Z,12.40
2018-08-04T07:01:37.030Z,11.07
2018-08-04T07:04:06.182Z,12.40
2018-08-04T07:06:34.876Z,12.47
2018-08-04T07:09:03.961Z,10.90
2018-08-04T07:11:32.886Z,11.60
2018-08-04T07:14:01.787Z,12.43
2018-08-04T07:16:30.674Z,11.23
2018-08-04T07:18:59.554Z,11.27
2018-08-04T07:21:28.482Z,12.03
2018-08-04T07:23:57.390Z,11.60
2018-08-04T07:26:26.291Z,11.33
2018-08-04T07:28:55.266Z,11.17
2018-08-04T07:31:24.082Z,10.97
2018-08-04T07:33:52.956Z,10.83
2018-08-04T07:36:22.221Z,12.03
2018-08-04T07:38:51.187Z,12.20
2018-08-04T07:41:20.122Z,11.40
2018-08-04T07:43:49.050Z,11.77
2018-08-04T07:46:17.966Z,10.87
2018-08-04T07:48:46.947Z,11.20
2018-08-04T07:51:15.903Z,11.10
2018-08-04T07:53:44.790Z,11.00
2018-08-04T07:56:13.703Z,10.97
2018-08-04T07:58:42.632Z,10.77
2018-08-04T08:01:11.542Z,11.60
2018-08-04T08:03:40.458Z,11.03
2018-08-04T08:06:09.392Z,10.20
2018-08-04T08:08:38.355Z,10.20
2018-08-04T08:11:07.388Z,10.30
2018-08-04T08:13:36.316Z,11.07
2018-08-04T08:16:05.270Z,10.00
2018-08-04T08:18:34.213Z,10.53
2018-08-04T08:21:03.325Z,10.60
2018-08-04T08:23:32.218Z,10.20
2018-08-04T08:26:07.791Z,11.07
2018-08-04T08:28:38.858Z,10.53
2018-08-04T08:31:08.446Z,10.40
2018-08-04T08:33:38.332Z,10.10
2018-08-04T08:36:07.803Z,10.73
2018-08-04T08:38:36.783Z,11.30
2018-08-04T08:41:05.825Z,9.93
2018-08-04T08:43:34.722Z,9.67
2018-08-04T08:46:03.711Z,9.10
2018-08-04T08:48:32.598Z,10.50
2018-08-04T08:51:01.537Z,9.40
2018-08-04T08:53:30.682Z,10.10
2018-08-04T08:55:59.379Z,8.80
2018-08-04T08:58:28.295Z,8.70
2018-08-04T09:00:57.179Z,10.47
2018-08-04T09:03:26.106Z,11.10
2018-08-04T09:05:55.067Z,9.67
2018-08-04T09:08:23.989Z,8.83
2018-08-04T09:10:52.894Z,10.17
2018-08-04T09:13:21.814Z,10.43
2018-08-04T09:15:50.726Z,9.80
2018-08-04T09:18:19.634Z,9.77
2018-08-04T09:20:48.553Z,9.60
2018-08-04T09:23:17.469Z,8.30
2018-08-04T09:25:46.345Z,8.40
2018-08-04T09:28:15.213Z,9.67
2018-08-04T09:30:44.129Z,9.10
2018-08-04T09:33:13.002Z,9.30
2018-08-04T09:35:42.083Z,9.20
2018-08-04T09:38:10.971Z,10.23
2018-08-04T09:40:39.885Z,10.20
2018-08-04T09:43:08.794Z,9.73
2018-08-04T09:45:37.700Z,10.67
2018-08-04T09:48:06.844Z,9.97
2018-08-04T09:50:35.818Z,9.83
2018-08-04T09:53:04.926Z,10.30
2018-08-04T09:55:33.919Z,9.90
2018-08-04T09:58:02.862Z,9.63
2018-08-04T10:00:37.194Z,9.70
2018-08-04T10:03:06.191Z,9.47
2018-08-04T10:05:35.243Z,9.40
2018-08-04T10:08:04.266Z,9.30
2018-08-04T10:10:33.285Z,10.80
2018-08-04T10:13:02.383Z,8.90
2018-08-04T10:15:31.343Z,9.87
2018-08-04T10:18:00.275Z,9.90
2018-08-04T10:20:30.158Z,10.53
2018-08-04T10:22:59.184Z,9.20
2018-08-04T10:25:28.070Z,9.80
2018-08-04T10:27:57.019Z,9.87
2018-08-04T10:30:25.729Z,9.80
2018-08-04T10:32:54.586Z,8.70
2018-08-04T10:35:23.466Z,8.87
2018-08-04T10:37:52.382Z,8.60
2018-08-04T10:40:21.387Z,9.10
2018-08-04T10:42:50.298Z,8.93
2018-08-04T10:45:19.231Z,8.47
2018-08-04T10:47:51.237Z,8.30
2018-08-04T10:50:20.142Z,8.47
2018-08-04T10:52:49.035Z,8.57
2018-08-04T10:55:17.942Z,8.80
2018-08-04T10:57:46.842Z,9.70
2018-08-04T11:00:15.763Z,8.97
2018-08-04T11:02:44.655Z,8.73
2018-08-04T11:05:13.538Z,8.50
2018-08-04T11:07:42.482Z,9.20
2018-08-04T11:10:11.435Z,8.97
2018-08-04T11:12:40.344Z,9.27
2018-08-04T11:15:09.342Z,8.70
2018-08-04T11:17:38.262Z,9.93
2018-08-04T11:20:07.212Z,10.07
2018-08-04T11:22:36.174Z,8.47
2018-08-04T11:25:05.118Z,9.50
2018-08-04T11:27:34.078Z,9.43
2018-08-04T11:30:03.152Z,9.27
2018-08-04T11:32:32.054Z,8.83
2018-08-04T11:35:00.982Z,9.30
2018-08-04T11:37:29.979Z,8.07
2018-08-04T11:39:58.867Z,9.53
2018-08-04T11:42:27.886Z,10.90
2018-08-04T11:44:56.905Z,8.40
2018-08-04T11:47:25.815Z,8.20
2018-08-04T11:49:54.690Z,9.47
2018-08-04T11:52:23.621Z,9.73
2018-08-04T11:54:52.502Z,9.10
2018-08-04T11:57:21.425Z,9.70
2018-08-04T11:59:50.322Z,9.47
2018-08-04T12:02:19.226Z,8.97
2018-08-04T12:04:48.187Z,9.30
2018-08-04T12:07:17.069Z,8.63
2018-08-04T12:09:45.946Z,8.50
2018-08-04T12:12:14.854Z,9.17
2018-08-04T12:14:43.805Z,8.73
2018-08-04T12:17:12.706Z,8.60
2018-08-04T12:19:41.617Z,9.70
2018-08-04T12:22:10.535Z,9.13
2018-08-04T12:24:39.458Z,9.17
2018-08-04T12:27:08.446Z,8.80
2018-08-04T12:29:37.345Z,8.57
2018-08-04T12:32:06.639Z,8.00
2018-08-04T12:34:35.642Z,8.83
2018-08-04T12:37:04.665Z,8.90
2018-08-04T12:39:33.558Z,9.17
2018-08-04T12:42:02.690Z,8.17
2018-08-04T12:44:31.680Z,7.57
2018-08-04T12:47:00.532Z,7.20
2018-08-04T12:49:29.117Z,7.90
2018-08-04T12:51:57.976Z,8.40
2018-08-04T12:54:26.906Z,8.30
2018-08-04T12:56:55.761Z,7.77
2018-08-04T12:59:24.655Z,7.90
2018-08-04T13:01:53.530Z,7.50
2018-08-04T13:04:22.425Z,7.80
2018-08-04T13:06:51.306Z,7.27
2018-08-04T13:09:20.346Z,6.83
2018-08-04T13:11:49.250Z,8.30
2018-08-04T13:14:18.206Z,7.60
2018-08-04T13:16:47.094Z,8.60
2018-08-04T13:19:15.973Z,7.70
2018-08-04T13:21:44.889Z,7.50
2018-08-04T13:24:13.794Z,6.70
2018-08-04T13:26:42.723Z,8.00
2018-08-04T13:29:11.637Z,7.93
2018-08-04T13:31:40.563Z,6.30
2018-08-04T13:34:09.533Z,7.30
2018-08-04T13:36:38.398Z,7.13
2018-08-04T13:39:08.720Z,7.10
2018-08-04T13:41:38.127Z,6.90
2018-08-04T13:44:07.093Z,6.33
2018-08-04T13:46:36.141Z,6.50
2018-08-04T13:49:05.048Z,7.20
2018-08-04T13:51:34.036Z,6.53
2018-08-04T13:54:03.010Z,6.50
2018-08-04T13:56:32.030Z,7.07
2018-08-04T13:59:00.976Z,6.37
2018-08-04T14:01:29.863Z,5.83
2018-08-04T14:03:58.747Z,5.10
2018-08-04T14:06:27.967Z,5.27
2018-08-04T14:08:56.949Z,4.83
2018-08-04T14:11:26.467Z,4.87
2018-08-04T14:13:55.622Z,5.30
2018-08-04T14:16:24.498Z,5.80
2018-08-04T14:18:53.368Z,5.37
2018-08-04T14:21:22.324Z,5.60
2018-08-04T14:23:51.223Z,5.00
2018-08-04T14:26:20.095Z,5.00
2018-08-04T14:28:49.024Z,4.40
2018-08-04T14:31:17.872Z,5.07
2018-08-04T14:33:47.023Z,4.53
2018-08-04T14:36:16.243Z,5.43
2018-08-04T14:38:45.150Z,5.10
2018-08-04T14:41:14.108Z,4.90
2018-08-04T14:43:42.993Z,4.90
2018-08-04T14:46:11.949Z,4.90
2018-08-04T14:48:40.835Z,4.57
2018-08-04T14:51:09.591Z,6.20
2018-08-04T14:53:38.418Z,6.60
2018-08-04T14:56:07.415Z,7.30
2018-08-04T14:58:36.477Z,9.37
2018-08-04T15:01:05.618Z,7.50
2018-08-04T15:03:34.488Z,7.50
2018-08-04T15:06:03.514Z,7.50
2018-08-04T15:08:32.396Z,7.20
2018-08-04T15:11:01.365Z,6.90
2018-08-04T15:13:30.244Z,6.57
2018-08-04T15:15:59.174Z,6.97
2018-08-04T15:18:28.059Z,6.63
2018-08-04T15:20:56.950Z,6.93
2018-08-04T15:23:25.847Z,7.77
2018-08-04T15:25:54.774Z,7.40
2018-08-04T15:28:23.645Z,7.83
2018-08-04T15:30:52.598Z,7.20
2018-08-04T15:33:21.554Z,8.13
2018-08-04T15:35:50.450Z,7.20
2018-08-04T15:38:19.430Z,8.00
2018-08-04T15:40:48.340Z,8.07
2018-08-04T15:43:17.371Z,6.93
2018-08-04T15:45:46.263Z,8.33
2018-08-04T15:48:15.906Z,7.10
2018-08-04T15:50:44.814Z,7.17
2018-08-04T15:53:13.686Z,7.30
2018-08-04T15:55:42.642Z,7.00
2018-08-04T15:58:11.558Z,8.00
2018-08-04T16:00:40.439Z,8.50
2018-08-04T16:03:09.317Z,8.20
2018-08-04T16:05:38.235Z,7.80
2018-08-04T16:08:07.222Z,7.17
2018-08-04T16:10:36.143Z,7.60
2018-08-04T16:13:05.075Z,7.33
2018-08-04T16:15:34.001Z,7.47
2018-08-04T16:18:02.594Z,7.60
2018-08-04T16:20:31.384Z,7.20
2018-08-04T16:23:00.263Z,7.33
2018-08-04T16:25:29.150Z,7.57
2018-08-04T16:27:58.036Z,7.87
2018-08-04T16:30:26.925Z,7.73
2018-08-04T16:32:55.821Z,7.00
2018-08-04T16:35:24.730Z,7.43
2018-08-04T16:37:53.632Z,6.50
2018-08-04T16:40:22.518Z,7.73
2018-08-04T16:42:51.386Z,6.77
2018-08-04T16:45:20.299Z,7.30
2018-08-04T16:47:49.182Z,7.00
2018-08-04T16:50:18.297Z,7.13
2018-08-04T16:52:47.199Z,7.17
2018-08-04T16:55:16.154Z,7.10
2018-08-04T16:57:45.311Z,7.70
2018-08-04T17:00:14.285Z,6.90
2018-08-04T17:02:44.213Z,7.43
2018-08-04T17:05:13.122Z,6.90
2018-08-04T17:07:42.022Z,7.20
2018-08-04T17:10:10.912Z,7.60
2018-08-04T17:12:39.793Z,7.07
2018-08-04T17:15:08.747Z,6.53
2018-08-04T17:17:37.763Z,7.60
2018-08-04T17:20:06.703Z,7.80
2018-08-04T17:22:35.637Z,7.13
2018-08-04T17:25:04.534Z,6.90
2018-08-04T17:27:33.425Z,6.27
2018-08-04T17:30:02.436Z,6.57
2018-08-04T17:32:31.636Z,7.60
2018-08-04T17:35:00.469Z,7.27
2018-08-04T17:37:29.416Z,6.23
2018-08-04T17:39:58.262Z,6.60
2018-08-04T17:42:27.174Z,7.70
2018-08-04T17:44:55.762Z,6.33
2018-08-04T17:47:24.537Z,6.60
2018-08-04T17:49:53.434Z,6.70
2018-08-04T17:52:22.414Z,8.00
2018-08-04T17:54:51.678Z,7.07
2018-08-04T17:57:20.785Z,6.83
2018-08-04T17:59:49.782Z,7.63
2018-08-04T18:02:18.670Z,7.57
2018-08-04T18:04:47.602Z,7.90
2018-08-04T18:07:17.644Z,7.60
2018-08-04T18:09:46.526Z,8.47
2018-08-04T18:12:15.457Z,8.33
2018-08-04T18:14:44.338Z,7.23
2018-08-04T18:17:12.927Z,7.27
2018-08-04T18:19:41.742Z,7.70
2018-08-04T18:22:10.682Z,7.13
2018-08-04T18:24:39.550Z,8.23
2018-08-04T18:27:08.518Z,7.03
2018-08-04T18:29:37.393Z,7.50
2018-08-04T18:32:06.590Z,7.00
2018-08-04T18:34:35.710Z,7.70
2018-08-04T18:37:04.735Z,6.73
2018-08-04T18:39:33.865Z,7.57
2018-08-04T18:42:02.766Z,7.20
2018-08-04T18:44:31.674Z,8.27
2018-08-04T18:47:00.781Z,7.37
2018-08-04T18:49:29.714Z,6.60
2018-08-04T18:51:58.614Z,7.30
2018-08-04T18:54:27.510Z,8.37
2018-08-04T18:56:56.420Z,7.37
2018-08-04T18:59:25.365Z,7.43
2018-08-04T19:01:55.278Z,8.13
2018-08-04T19:04:24.162Z,7.20
2018-08-04T19:06:52.886Z,7.73
2018-08-04T19:09:21.880Z,10.20
2018-08-04T19:11:50.835Z,7.83
2018-08-04T19:14:19.764Z,8.70
2018-08-04T19:16:48.698Z,8.03
2018-08-04T19:19:17.682Z,8.33
2018-08-04T19:21:46.666Z,8.33
2018-08-04T19:24:15.706Z,8.20
2018-08-04T19:26:44.611Z,8.40
2018-08-04T19:29:13.521Z,9.10
2018-08-04T19:31:42.436Z,8.90
2018-08-04T19:34:11.414Z,7.70
2018-08-04T19:36:40.434Z,7.57
2018-08-04T19:39:10.314Z,8.20
2018-08-04T19:41:39.394Z,7.17
2018-08-04T19:44:08.422Z,7.70
2018-08-04T19:46:38.267Z,7.20
2018-08-04T19:49:07.173Z,7.53
2018-08-04T19:51:36.076Z,6.57
2018-08-04T19:54:05.113Z,7.23
2018-08-04T19:56:34.192Z,6.93
2018-08-04T19:59:03.079Z,6.40
2018-08-04T20:01:31.982Z,7.40
2018-08-04T20:04:00.911Z,7.67
2018-08-04T20:06:29.894Z,7.00
2018-08-04T20:08:58.867Z,7.40
2018-08-04T20:11:27.811Z,7.70
2018-08-04T20:13:56.822Z,7.67
2018-08-04T20:16:25.818Z,7.80
2018-08-04T20:18:54.702Z,7.33
2018-08-04T20:21:23.662Z,7.50
2018-08-04T20:23:52.577Z,7.60
2018-08-04T20:26:21.577Z,7.77
2018-08-04T20:28:50.540Z,7.50
2018-08-04T20:31:19.578Z,7.53
2018-08-04T20:33:48.547Z,7.87
2018-08-04T20:36:17.438Z,7.57
2018-08-04T20:38:46.353Z,7.70
2018-08-04T20:41:15.566Z,7.00
2018-08-04T20:43:44.494Z,8.03
2018-08-04T20:46:13.410Z,7.10
2018-08-04T20:48:42.345Z,8.67
2018-08-04T20:51:11.346Z,7.33
2018-08-04T20:53:40.314Z,7.97
2018-08-04T20:56:09.523Z,7.60
2018-08-04T20:58:39.483Z,8.53
2018-08-04T21:02:18.618Z,7.30
2018-08-04T21:04:47.566Z,8.37
2018-08-04T21:07:16.578Z,7.77
2018-08-04T21:09:46.570Z,7.83
2018-08-04T21:12:15.518Z,7.20
2018-08-04T21:14:44.462Z,7.83
2018-08-04T21:17:13.406Z,7.73
2018-08-04T21:19:42.357Z,8.60
2018-08-04T21:22:11.296Z,7.77
2018-08-04T21:24:40.193Z,7.73
2018-08-04T21:27:09.147Z,7.53
2018-08-04T21:29:38.052Z,8.53
2018-08-04T21:32:07.003Z,8.50
2018-08-04T21:34:36.031Z,8.87
2018-08-04T21:37:04.926Z,7.63
2018-08-04T21:39:33.754Z,7.40
2018-08-04T21:42:02.643Z,8.63
2018-08-04T21:44:31.594Z,7.80
2018-08-04T21:47:00.462Z,8.63
2018-08-04T21:49:29.427Z,7.80
2018-08-04T21:51:58.338Z,7.80
2018-08-04T21:54:27.230Z,8.20
2018-08-04T21:56:56.141Z,8.80
2018-08-04T21:59:25.054Z,8.60
2018-08-04T22:01:54.553Z,8.30
2018-08-04T22:04:23.655Z,8.70
2018-08-04T22:08:05.598Z,8.17
2018-08-04T22:10:34.702Z,8.53
2018-08-04T22:13:03.749Z,8.70
2018-08-04T22:15:32.646Z,9.07
2018-08-04T22:18:01.579Z,8.20
2018-08-04T22:20:30.794Z,8.90
2018-08-04T22:22:59.713Z,8.63
2018-08-04T22:25:29.750Z,9.40
2018-08-04T22:27:59.299Z,8.90
2018-08-04T22:30:28.287Z,9.20
2018-08-04T22:32:57.210Z,8.03
2018-08-04T22:35:26.179Z,8.20
2018-08-04T22:37:55.087Z,8.43
2018-08-04T22:40:23.996Z,8.50
2018-08-04T22:42:52.869Z,8.70
2018-08-04T22:45:46.318Z,9.23
2018-08-04T22:48:15.321Z,8.87
2018-08-04T22:50:44.543Z,10.23
2018-08-04T22:53:13.571Z,8.83
2018-08-04T22:55:42.935Z,8.60
2018-08-04T22:58:12.210Z,8.93
2018-08-04T23:00:42.364Z,9.63
2018-08-04T23:03:11.917Z,9.53
2018-08-04T23:05:40.998Z,8.60
2018-08-04T23:08:10.897Z,9.27
2018-08-04T23:10:40.242Z,8.40
2018-08-04T23:13:09.937Z,8.98
2018-08-04T23:15:38.991Z,9.30
2018-08-04T23:18:08.470Z,9.33
2018-08-04T23:20:37.702Z,8.73
2018-08-04T23:23:07.406Z,9.40
2018-08-04T23:25:36.346Z,9.00
2018-08-04T23:28:05.499Z,9.00
2018-08-04T23:30:34.541Z,8.90
2018-08-04T23:33:03.612Z,9.63
2018-08-04T23:35:32.635Z,9.47
2018-08-04T23:38:01.572Z,9.10
2018-08-04T23:40:30.518Z,8.75
2018-08-04T23:42:59.434Z,9.87
2018-08-04T23:45:28.389Z,9.33
2018-08-04T23:47:57.313Z,10.60
2018-08-04T23:50:26.464Z,9.07
2018-08-04T23:52:55.385Z,9.00
2018-08-04T23:55:24.371Z,8.47
2018-08-04T23:57:54.338Z,9.53
